sensor_id;sensor_type;location;lat;lon;timestamp;temperature;humidity
22966;DHT22;11649;48.090;9.754;2022-07-24T00:02:20;18.70;99.90
22966;DHT22;11649;48.090;9.754;2022-07-24T00:04:52;18.80;99.90
22966;DHT22;11649;48.090;9.754;2022-07-24T00:07:23;18.70;99.90
22966;DHT22;11649;48.090;9.754;2022-07-24T00:09:50;19.00;99.90
22966;DHT22;11649;48.090;9.754;2022-07-24T00:12:17;18.60;99.90
22966;DHT22;11649;48.090;9.754;2022-07-24T00:14:44;18.90;99.90
22966;DHT22;11649;48.090;9.754;2022-07-24T00:17:11;18.70;99.90
22966;DHT22;11649;48.090;9.754;2022-07-24T00:19:38;18.70;99.90
22966;DHT22;11649;48.090;9.754;2022-07-24T00:22:05;18.80;99.90
22966;DHT22;11649;48.090;9.754;2022-07-24T00:24:32;18.80;99.90
22966;DHT22;11649;48.090;9.754;2022-07-24T00:26:59;18.80;99.90
22966;DHT22;11649;48.090;9.754;2022-07-24T00:29:27;19.40;99.90
22966;DHT22;11649;48.090;9.754;2022-07-24T00:31:55;19.40;99.90
22966;DHT22;11649;48.090;9.754;2022-07-24T00:34:21;18.50;99.90
22966;DHT22;11649;48.090;9.754;2022-07-24T00:36:48;18.60;99.90
22966;DHT22;11649;48.090;9.754;2022-07-24T00:39:15;19.00;99.90
22966;DHT22;11649;48.090;9.754;2022-07-24T00:41:42;18.30;99.90
22966;DHT22;11649;48.090;9.754;2022-07-24T00:44:15;18.20;99.90
22966;DHT22;11649;48.090;9.754;2022-07-24T00:46:43;18.60;99.90
22966;DHT22;11649;48.090;9.754;2022-07-24T00:49:14;18.00;99.90
22966;DHT22;11649;48.090;9.754;2022-07-24T00:51:49;18.10;99.90
22966;DHT22;11649;48.090;9.754;2022-07-24T00:54:18;18.10;99.90
22966;DHT22;11649;48.090;9.754;2022-07-24T00:56:47;18.20;99.90
22966;DHT22;11649;48.090;9.754;2022-07-24T00:59:14;18.30;99.90
22966;DHT22;11649;48.090;9.754;2022-07-24T01:01:41;18.30;99.90
22966;DHT22;11649;48.090;9.754;2022-07-24T01:04:09;18.40;99.90
22966;DHT22;11649;48.090;9.754;2022-07-24T01:06:42;18.50;99.90
22966;DHT22;11649;48.090;9.754;2022-07-24T01:09:10;18.50;99.90
22966;DHT22;11649;48.090;9.754;2022-07-24T01:11:41;18.40;99.90
22966;DHT22;11649;48.090;9.754;2022-07-24T01:14:09;18.30;99.90
22966;DHT22;11649;48.090;9.754;2022-07-24T01:16:38;18.30;99.90
22966;DHT22;11649;48.090;9.754;2022-07-24T01:19:05;18.30;99.90
22966;DHT22;11649;48.090;9.754;2022-07-24T01:21:33;18.20;99.90
22966;DHT22;11649;48.090;9.754;2022-07-24T01:24:00;18.10;99.90
22966;DHT22;11649;48.090;9.754;2022-07-24T01:26:27;18.20;99.90
22966;DHT22;11649;48.090;9.754;2022-07-24T01:28:54;18.20;99.90
22966;DHT22;11649;48.090;9.754;2022-07-24T01:31:21;18.40;99.90
22966;DHT22;11649;48.090;9.754;2022-07-24T01:33:48;18.40;99.90
22966;DHT22;11649;48.090;9.754;2022-07-24T01:36:14;18.50;99.90
22966;DHT22;11649;48.090;9.754;2022-07-24T01:38:41;18.60;99.90
22966;DHT22;11649;48.090;9.754;2022-07-24T01:41:08;18.40;99.90
22966;DHT22;11649;48.090;9.754;2022-07-24T01:43:35;18.30;99.90
22966;DHT22;11649;48.090;9.754;2022-07-24T01:46:02;18.20;99.90
22966;DHT22;11649;48.090;9.754;2022-07-24T01:48:29;18.20;99.90
22966;DHT22;11649;48.090;9.754;2022-07-24T01:50:56;18.20;99.90
22966;DHT22;11649;48.090;9.754;2022-07-24T01:53:23;18.40;99.90
22966;DHT22;11649;48.090;9.754;2022-07-24T01:55:51;17.90;99.90
22966;DHT22;11649;48.090;9.754;2022-07-24T01:58:18;18.20;99.90
22966;DHT22;11649;48.090;9.754;2022-07-24T02:00:48;18.00;99.90
22966;DHT22;11649;48.090;9.754;2022-07-24T02:03:16;18.10;99.90
22966;DHT22;11649;48.090;9.754;2022-07-24T02:05:43;17.70;99.90
22966;DHT22;11649;48.090;9.754;2022-07-24T02:08:09;17.70;99.90
22966;DHT22;11649;48.090;9.754;2022-07-24T02:10:36;17.50;99.90
22966;DHT22;11649;48.090;9.754;2022-07-24T02:13:03;17.70;99.90
22966;DHT22;11649;48.090;9.754;2022-07-24T02:15:32;17.70;99.90
22966;DHT22;11649;48.090;9.754;2022-07-24T02:18:00;17.70;99.90
22966;DHT22;11649;48.090;9.754;2022-07-24T02:20:28;17.70;99.90
22966;DHT22;11649;48.090;9.754;2022-07-24T02:22:55;17.60;99.90
22966;DHT22;11649;48.090;9.754;2022-07-24T02:25:22;17.60;99.90
22966;DHT22;11649;48.090;9.754;2022-07-24T02:27:49;17.70;99.90
22966;DHT22;11649;48.090;9.754;2022-07-24T02:30:19;17.70;99.90
22966;DHT22;11649;48.090;9.754;2022-07-24T02:32:46;17.60;99.90
22966;DHT22;11649;48.090;9.754;2022-07-24T02:35:12;18.00;99.90
22966;DHT22;11649;48.090;9.754;2022-07-24T02:37:41;18.30;99.90
22966;DHT22;11649;48.090;9.754;2022-07-24T02:40:09;18.40;99.90
22966;DHT22;11649;48.090;9.754;2022-07-24T02:42:37;18.00;99.90
22966;DHT22;11649;48.090;9.754;2022-07-24T02:45:05;18.10;99.90
22966;DHT22;11649;48.090;9.754;2022-07-24T02:47:33;18.00;99.90
22966;DHT22;11649;48.090;9.754;2022-07-24T02:50:00;17.90;99.90
22966;DHT22;11649;48.090;9.754;2022-07-24T02:52:27;17.90;99.90
22966;DHT22;11649;48.090;9.754;2022-07-24T02:54:54;17.90;99.90
22966;DHT22;11649;48.090;9.754;2022-07-24T02:57:21;17.80;99.90
22966;DHT22;11649;48.090;9.754;2022-07-24T02:59:48;17.80;99.90
22966;DHT22;11649;48.090;9.754;2022-07-24T03:02:19;17.70;99.90
22966;DHT22;11649;48.090;9.754;2022-07-24T03:04:46;17.80;99.90
22966;DHT22;11649;48.090;9.754;2022-07-24T03:07:13;18.40;99.90
22966;DHT22;11649;48.090;9.754;2022-07-24T03:09:40;18.00;99.90
22966;DHT22;11649;48.090;9.754;2022-07-24T03:12:07;18.10;99.90
22966;DHT22;11649;48.090;9.754;2022-07-24T03:14:34;17.80;99.90
22966;DHT22;11649;48.090;9.754;2022-07-24T03:17:01;17.70;99.90
22966;DHT22;11649;48.090;9.754;2022-07-24T03:19:27;17.70;99.90
22966;DHT22;11649;48.090;9.754;2022-07-24T03:21:54;17.40;99.90
22966;DHT22;11649;48.090;9.754;2022-07-24T03:24:21;17.30;99.90
22966;DHT22;11649;48.090;9.754;2022-07-24T03:26:48;17.30;99.90
22966;DHT22;11649;48.090;9.754;2022-07-24T03:29:15;17.40;99.90
22966;DHT22;11649;48.090;9.754;2022-07-24T03:31:44;17.20;99.90
22966;DHT22;11649;48.090;9.754;2022-07-24T03:34:11;17.40;99.90
22966;DHT22;11649;48.090;9.754;2022-07-24T03:36:38;17.80;99.90
22966;DHT22;11649;48.090;9.754;2022-07-24T03:39:05;17.40;99.90
22966;DHT22;11649;48.090;9.754;2022-07-24T03:41:33;17.50;99.90
22966;DHT22;11649;48.090;9.754;2022-07-24T03:44:00;17.30;99.90
22966;DHT22;11649;48.090;9.754;2022-07-24T03:46:27;17.30;99.90
22966;DHT22;11649;48.090;9.754;2022-07-24T03:48:55;17.20;99.90
22966;DHT22;11649;48.090;9.754;2022-07-24T03:51:23;17.20;99.90
22966;DHT22;11649;48.090;9.754;2022-07-24T03:53:52;17.40;99.90
22966;DHT22;11649;48.090;9.754;2022-07-24T03:56:20;17.40;99.90
22966;DHT22;11649;48.090;9.754;2022-07-24T03:58:52;17.30;99.90
22966;DHT22;11649;48.090;9.754;2022-07-24T04:01:19;17.70;99.90
22966;DHT22;11649;48.090;9.754;2022-07-24T04:03:46;17.40;99.90
22966;DHT22;11649;48.090;9.754;2022-07-24T04:06:14;17.50;99.90
22966;DHT22;11649;48.090;9.754;2022-07-24T04:08:41;17.40;99.90
22966;DHT22;11649;48.090;9.754;2022-07-24T04:11:08;17.20;99.90
22966;DHT22;11649;48.090;9.754;2022-07-24T04:13:35;18.00;99.90
22966;DHT22;11649;48.090;9.754;2022-07-24T04:16:08;17.90;99.90
22966;DHT22;11649;48.090;9.754;2022-07-24T04:18:35;17.20;99.90
22966;DHT22;11649;48.090;9.754;2022-07-24T04:21:02;17.40;99.90
22966;DHT22;11649;48.090;9.754;2022-07-24T04:23:29;17.20;99.90
22966;DHT22;11649;48.090;9.754;2022-07-24T04:25:56;17.10;99.90
22966;DHT22;11649;48.090;9.754;2022-07-24T04:28:22;17.40;99.90
22966;DHT22;11649;48.090;9.754;2022-07-24T04:30:49;17.20;99.90
22966;DHT22;11649;48.090;9.754;2022-07-24T04:33:16;17.20;99.90
22966;DHT22;11649;48.090;9.754;2022-07-24T04:35:43;17.70;99.90
22966;DHT22;11649;48.090;9.754;2022-07-24T04:38:11;17.70;99.90
22966;DHT22;11649;48.090;9.754;2022-07-24T04:40:37;17.60;99.90
22966;DHT22;11649;48.090;9.754;2022-07-24T04:43:04;17.70;99.90
22966;DHT22;11649;48.090;9.754;2022-07-24T04:45:31;18.00;99.90
22966;DHT22;11649;48.090;9.754;2022-07-24T04:48:01;17.70;99.90
22966;DHT22;11649;48.090;9.754;2022-07-24T04:50:29;17.60;99.90
22966;DHT22;11649;48.090;9.754;2022-07-24T04:52:56;17.60;99.90
22966;DHT22;11649;48.090;9.754;2022-07-24T04:55:23;17.70;99.90
22966;DHT22;11649;48.090;9.754;2022-07-24T04:57:49;17.50;99.90
22966;DHT22;11649;48.090;9.754;2022-07-24T05:00:16;17.40;99.90
22966;DHT22;11649;48.090;9.754;2022-07-24T05:02:43;18.30;99.90
22966;DHT22;11649;48.090;9.754;2022-07-24T05:05:10;18.40;99.90
22966;DHT22;11649;48.090;9.754;2022-07-24T05:07:37;18.40;99.90
22966;DHT22;11649;48.090;9.754;2022-07-24T05:10:05;17.60;99.90
22966;DHT22;11649;48.090;9.754;2022-07-24T05:12:32;17.80;99.90
22966;DHT22;11649;48.090;9.754;2022-07-24T05:14:59;17.90;99.90
22966;DHT22;11649;48.090;9.754;2022-07-24T05:17:26;18.40;99.90
22966;DHT22;11649;48.090;9.754;2022-07-24T05:19:53;18.90;99.90
22966;DHT22;11649;48.090;9.754;2022-07-24T05:22:19;18.30;99.90
22966;DHT22;11649;48.090;9.754;2022-07-24T05:24:46;18.10;99.90
22966;DHT22;11649;48.090;9.754;2022-07-24T05:27:13;18.70;99.90
22966;DHT22;11649;48.090;9.754;2022-07-24T05:29:40;18.10;99.90
22966;DHT22;11649;48.090;9.754;2022-07-24T05:32:08;18.10;99.90
22966;DHT22;11649;48.090;9.754;2022-07-24T05:34:35;17.90;99.90
22966;DHT22;11649;48.090;9.754;2022-07-24T05:37:09;18.00;99.90
22966;DHT22;11649;48.090;9.754;2022-07-24T05:39:36;18.00;99.90
22966;DHT22;11649;48.090;9.754;2022-07-24T05:42:03;18.00;99.90
22966;DHT22;11649;48.090;9.754;2022-07-24T05:44:30;17.90;99.90
22966;DHT22;11649;48.090;9.754;2022-07-24T05:46:57;18.10;99.90
22966;DHT22;11649;48.090;9.754;2022-07-24T05:49:24;18.40;99.90
22966;DHT22;11649;48.090;9.754;2022-07-24T05:51:51;18.10;99.90
22966;DHT22;11649;48.090;9.754;2022-07-24T05:54:18;18.40;99.90
22966;DHT22;11649;48.090;9.754;2022-07-24T05:56:45;18.50;99.90
22966;DHT22;11649;48.090;9.754;2022-07-24T05:59:12;18.70;99.90
22966;DHT22;11649;48.090;9.754;2022-07-24T06:01:38;18.80;99.90
22966;DHT22;11649;48.090;9.754;2022-07-24T06:04:06;19.00;99.90
22966;DHT22;11649;48.090;9.754;2022-07-24T06:06:32;19.20;99.90
22966;DHT22;11649;48.090;9.754;2022-07-24T06:08:59;18.70;99.90
22966;DHT22;11649;48.090;9.754;2022-07-24T06:11:26;18.70;99.90
22966;DHT22;11649;48.090;9.754;2022-07-24T06:13:55;18.70;99.90
22966;DHT22;11649;48.090;9.754;2022-07-24T06:16:22;18.90;99.90
22966;DHT22;11649;48.090;9.754;2022-07-24T06:18:49;19.10;99.90
22966;DHT22;11649;48.090;9.754;2022-07-24T06:21:16;19.20;99.90
22966;DHT22;11649;48.090;9.754;2022-07-24T06:23:43;19.40;99.90
22966;DHT22;11649;48.090;9.754;2022-07-24T06:26:10;19.40;99.90
22966;DHT22;11649;48.090;9.754;2022-07-24T06:28:37;19.50;99.90
22966;DHT22;11649;48.090;9.754;2022-07-24T06:31:04;19.60;99.90
22966;DHT22;11649;48.090;9.754;2022-07-24T06:33:31;19.70;99.90
22966;DHT22;11649;48.090;9.754;2022-07-24T06:35:59;19.80;99.90
22966;DHT22;11649;48.090;9.754;2022-07-24T06:38:26;20.00;99.90
22966;DHT22;11649;48.090;9.754;2022-07-24T06:40:52;20.20;99.90
22966;DHT22;11649;48.090;9.754;2022-07-24T06:43:19;20.30;99.90
22966;DHT22;11649;48.090;9.754;2022-07-24T06:45:46;20.70;99.90
22966;DHT22;11649;48.090;9.754;2022-07-24T06:48:13;20.40;99.90
22966;DHT22;11649;48.090;9.754;2022-07-24T06:50:40;20.50;99.90
22966;DHT22;11649;48.090;9.754;2022-07-24T06:53:06;20.60;99.90
22966;DHT22;11649;48.090;9.754;2022-07-24T06:55:33;20.70;99.90
22966;DHT22;11649;48.090;9.754;2022-07-24T06:58:00;20.80;99.90
22966;DHT22;11649;48.090;9.754;2022-07-24T07:00:27;20.80;99.90
22966;DHT22;11649;48.090;9.754;2022-07-24T07:02:54;21.00;99.90
22966;DHT22;11649;48.090;9.754;2022-07-24T07:05:20;20.90;99.90
22966;DHT22;11649;48.090;9.754;2022-07-24T07:07:47;21.00;99.90
22966;DHT22;11649;48.090;9.754;2022-07-24T07:10:14;21.10;99.90
22966;DHT22;11649;48.090;9.754;2022-07-24T07:12:41;21.20;99.90
22966;DHT22;11649;48.090;9.754;2022-07-24T07:15:09;21.20;99.90
22966;DHT22;11649;48.090;9.754;2022-07-24T07:17:41;21.20;99.90
22966;DHT22;11649;48.090;9.754;2022-07-24T07:20:09;21.30;99.90
22966;DHT22;11649;48.090;9.754;2022-07-24T07:22:37;21.40;99.90
22966;DHT22;11649;48.090;9.754;2022-07-24T07:25:06;21.60;99.90
22966;DHT22;11649;48.090;9.754;2022-07-24T07:27:33;21.60;99.90
22966;DHT22;11649;48.090;9.754;2022-07-24T07:29:59;21.70;99.90
22966;DHT22;11649;48.090;9.754;2022-07-24T07:32:26;21.80;99.90
22966;DHT22;11649;48.090;9.754;2022-07-24T07:34:53;21.90;99.90
22966;DHT22;11649;48.090;9.754;2022-07-24T07:37:20;22.00;99.90
22966;DHT22;11649;48.090;9.754;2022-07-24T07:39:47;22.10;99.90
22966;DHT22;11649;48.090;9.754;2022-07-24T07:42:14;22.10;99.90
22966;DHT22;11649;48.090;9.754;2022-07-24T07:44:41;22.20;99.90
22966;DHT22;11649;48.090;9.754;2022-07-24T07:47:08;22.30;99.90
22966;DHT22;11649;48.090;9.754;2022-07-24T07:49:35;22.40;99.90
22966;DHT22;11649;48.090;9.754;2022-07-24T07:52:02;22.40;99.90
22966;DHT22;11649;48.090;9.754;2022-07-24T07:54:29;22.40;99.90
22966;DHT22;11649;48.090;9.754;2022-07-24T07:56:56;22.70;99.90
22966;DHT22;11649;48.090;9.754;2022-07-24T07:59:23;22.60;99.90
22966;DHT22;11649;48.090;9.754;2022-07-24T08:01:49;22.80;99.90
22966;DHT22;11649;48.090;9.754;2022-07-24T08:04:16;22.70;99.90
22966;DHT22;11649;48.090;9.754;2022-07-24T08:06:43;22.70;99.90
22966;DHT22;11649;48.090;9.754;2022-07-24T08:09:10;22.80;99.90
22966;DHT22;11649;48.090;9.754;2022-07-24T08:11:37;22.90;99.90
22966;DHT22;11649;48.090;9.754;2022-07-24T08:14:04;22.80;99.90
22966;DHT22;11649;48.090;9.754;2022-07-24T08:16:31;22.90;99.90
22966;DHT22;11649;48.090;9.754;2022-07-24T08:18:57;23.00;99.90
22966;DHT22;11649;48.090;9.754;2022-07-24T08:21:25;23.10;99.90
22966;DHT22;11649;48.090;9.754;2022-07-24T08:23:51;23.20;99.90
22966;DHT22;11649;48.090;9.754;2022-07-24T08:26:18;23.20;99.90
22966;DHT22;11649;48.090;9.754;2022-07-24T08:28:45;23.20;99.90
22966;DHT22;11649;48.090;9.754;2022-07-24T08:31:12;23.30;99.90
22966;DHT22;11649;48.090;9.754;2022-07-24T08:33:40;23.30;99.90
22966;DHT22;11649;48.090;9.754;2022-07-24T08:36:07;23.40;99.90
22966;DHT22;11649;48.090;9.754;2022-07-24T08:38:34;23.50;99.90
22966;DHT22;11649;48.090;9.754;2022-07-24T08:41:00;23.70;99.90
22966;DHT22;11649;48.090;9.754;2022-07-24T08:43:28;23.70;99.00
22966;DHT22;11649;48.090;9.754;2022-07-24T08:45:55;23.70;99.90
22966;DHT22;11649;48.090;9.754;2022-07-24T08:48:23;23.70;99.90
22966;DHT22;11649;48.090;9.754;2022-07-24T08:50:52;23.70;99.90
22966;DHT22;11649;48.090;9.754;2022-07-24T08:53:22;23.80;96.40
22966;DHT22;11649;48.090;9.754;2022-07-24T08:55:50;24.00;99.90
22966;DHT22;11649;48.090;9.754;2022-07-24T08:58:17;23.90;98.00
22966;DHT22;11649;48.090;9.754;2022-07-24T09:00:44;24.00;97.10
22966;DHT22;11649;48.090;9.754;2022-07-24T09:03:10;24.10;99.90
22966;DHT22;11649;48.090;9.754;2022-07-24T09:05:53;24.10;99.00
22966;DHT22;11649;48.090;9.754;2022-07-24T09:08:20;24.20;99.90
22966;DHT22;11649;48.090;9.754;2022-07-24T09:10:59;24.20;99.90
22966;DHT22;11649;48.090;9.754;2022-07-24T09:13:27;24.40;95.80
22966;DHT22;11649;48.090;9.754;2022-07-24T09:15:56;24.40;97.60
22966;DHT22;11649;48.090;9.754;2022-07-24T09:18:33;24.30;99.90
22966;DHT22;11649;48.090;9.754;2022-07-24T09:21:12;24.70;99.90
22966;DHT22;11649;48.090;9.754;2022-07-24T09:23:40;24.50;99.90
22966;DHT22;11649;48.090;9.754;2022-07-24T09:26:07;24.60;99.90
22966;DHT22;11649;48.090;9.754;2022-07-24T09:28:53;24.70;99.90
22966;DHT22;11649;48.090;9.754;2022-07-24T09:31:21;24.80;99.90
22966;DHT22;11649;48.090;9.754;2022-07-24T09:33:49;25.00;99.90
22966;DHT22;11649;48.090;9.754;2022-07-24T09:36:19;25.10;95.70
22966;DHT22;11649;48.090;9.754;2022-07-24T09:38:50;25.20;92.70
22966;DHT22;11649;48.090;9.754;2022-07-24T09:41:22;25.30;98.50
22966;DHT22;11649;48.090;9.754;2022-07-24T09:44:02;25.30;95.80
22966;DHT22;11649;48.090;9.754;2022-07-24T09:46:46;25.30;94.20
22966;DHT22;11649;48.090;9.754;2022-07-24T09:49:21;25.30;94.70
22966;DHT22;11649;48.090;9.754;2022-07-24T09:57:20;24.90;98.20
22966;DHT22;11649;48.090;9.754;2022-07-24T09:59:49;24.80;97.10
22966;DHT22;11649;48.090;9.754;2022-07-24T10:02:26;24.90;98.50
22966;DHT22;11649;48.090;9.754;2022-07-24T10:04:55;24.90;99.00
22966;DHT22;11649;48.090;9.754;2022-07-24T10:07:24;25.00;98.30
22966;DHT22;11649;48.090;9.754;2022-07-24T10:09:55;25.10;98.30
22966;DHT22;11649;48.090;9.754;2022-07-24T10:12:24;25.30;98.20
22966;DHT22;11649;48.090;9.754;2022-07-24T10:14:53;25.40;97.00
22966;DHT22;11649;48.090;9.754;2022-07-24T10:17:21;25.50;96.10
22966;DHT22;11649;48.090;9.754;2022-07-24T10:19:51;25.40;97.80
22966;DHT22;11649;48.090;9.754;2022-07-24T10:22:21;25.40;95.40
22966;DHT22;11649;48.090;9.754;2022-07-24T10:24:55;25.40;93.80
22966;DHT22;11649;48.090;9.754;2022-07-24T10:27:33;25.30;94.20
22966;DHT22;11649;48.090;9.754;2022-07-24T10:30:05;25.20;95.20
22966;DHT22;11649;48.090;9.754;2022-07-24T10:32:34;25.30;96.10
22966;DHT22;11649;48.090;9.754;2022-07-24T10:35:22;25.30;95.00
22966;DHT22;11649;48.090;9.754;2022-07-24T10:40:45;25.50;94.00
22966;DHT22;11649;48.090;9.754;2022-07-24T10:43:17;25.60;89.70
22966;DHT22;11649;48.090;9.754;2022-07-24T10:45:45;25.60;85.10
22966;DHT22;11649;48.090;9.754;2022-07-24T10:59:00;25.30;93.60
22966;DHT22;11649;48.090;9.754;2022-07-24T11:01:43;25.20;91.80
22966;DHT22;11649;48.090;9.754;2022-07-24T11:07:12;25.10;90.50
22966;DHT22;11649;48.090;9.754;2022-07-24T11:10:03;25.10;91.90
22966;DHT22;11649;48.090;9.754;2022-07-24T11:12:42;25.10;93.50
22966;DHT22;11649;48.090;9.754;2022-07-24T11:15:13;25.10;95.00
22966;DHT22;11649;48.090;9.754;2022-07-24T11:18:13;25.00;92.40
22966;DHT22;11649;48.090;9.754;2022-07-24T11:20:41;25.10;92.60
22966;DHT22;11649;48.090;9.754;2022-07-24T11:23:21;25.30;93.50
22966;DHT22;11649;48.090;9.754;2022-07-24T11:25:49;25.50;92.70
22966;DHT22;11649;48.090;9.754;2022-07-24T11:28:17;25.70;91.40
22966;DHT22;11649;48.090;9.754;2022-07-24T11:30:45;25.80;90.50
22966;DHT22;11649;48.090;9.754;2022-07-24T11:33:19;25.80;83.90
22966;DHT22;11649;48.090;9.754;2022-07-24T11:35:46;26.00;83.60
22966;DHT22;11649;48.090;9.754;2022-07-24T11:38:14;26.20;84.70
22966;DHT22;11649;48.090;9.754;2022-07-24T11:40:41;26.30;81.60
22966;DHT22;11649;48.090;9.754;2022-07-24T11:43:08;26.40;82.50
22966;DHT22;11649;48.090;9.754;2022-07-24T11:45:38;26.50;78.60
22966;DHT22;11649;48.090;9.754;2022-07-24T11:48:05;26.60;78.50
22966;DHT22;11649;48.090;9.754;2022-07-24T11:50:32;26.80;76.10
22966;DHT22;11649;48.090;9.754;2022-07-24T11:53:05;27.00;74.50
22966;DHT22;11649;48.090;9.754;2022-07-24T11:55:32;27.20;75.70
22966;DHT22;11649;48.090;9.754;2022-07-24T11:57:59;27.10;70.90
22966;DHT22;11649;48.090;9.754;2022-07-24T12:00:46;27.20;71.20
22966;DHT22;11649;48.090;9.754;2022-07-24T12:03:12;27.30;70.30
22966;DHT22;11649;48.090;9.754;2022-07-24T12:05:40;27.40;70.90
22966;DHT22;11649;48.090;9.754;2022-07-24T12:08:18;27.50;65.70
22966;DHT22;11649;48.090;9.754;2022-07-24T12:10:46;27.70;61.00
22966;DHT22;11649;48.090;9.754;2022-07-24T12:13:16;27.60;60.00
22966;DHT22;11649;48.090;9.754;2022-07-24T12:15:44;27.50;61.50
22966;DHT22;11649;48.090;9.754;2022-07-24T12:18:11;27.40;65.60
22966;DHT22;11649;48.090;9.754;2022-07-24T12:20:40;27.30;66.60
22966;DHT22;11649;48.090;9.754;2022-07-24T12:23:14;27.40;66.60
22966;DHT22;11649;48.090;9.754;2022-07-24T12:25:42;27.40;65.80
22966;DHT22;11649;48.090;9.754;2022-07-24T12:28:12;27.50;65.20
22966;DHT22;11649;48.090;9.754;2022-07-24T12:30:48;27.70;65.60
22966;DHT22;11649;48.090;9.754;2022-07-24T12:41:09;27.30;62.80
22966;DHT22;11649;48.090;9.754;2022-07-24T12:44:15;27.20;63.80
22966;DHT22;11649;48.090;9.754;2022-07-24T12:46:43;26.80;62.20
22966;DHT22;11649;48.090;9.754;2022-07-24T12:49:15;26.90;62.50
22966;DHT22;11649;48.090;9.754;2022-07-24T12:51:53;26.70;64.80
22966;DHT22;11649;48.090;9.754;2022-07-24T12:54:21;26.80;61.30
22966;DHT22;11649;48.090;9.754;2022-07-24T12:56:51;27.10;61.40
22966;DHT22;11649;48.090;9.754;2022-07-24T12:59:28;27.60;58.00
22966;DHT22;11649;48.090;9.754;2022-07-24T13:02:01;28.20;57.60
22966;DHT22;11649;48.090;9.754;2022-07-24T13:04:29;28.60;60.40
22966;DHT22;11649;48.090;9.754;2022-07-24T13:06:58;28.60;56.70
22966;DHT22;11649;48.090;9.754;2022-07-24T13:09:27;29.40;50.50
22966;DHT22;11649;48.090;9.754;2022-07-24T13:11:55;29.60;51.50
22966;DHT22;11649;48.090;9.754;2022-07-24T13:14:23;29.90;53.00
22966;DHT22;11649;48.090;9.754;2022-07-24T13:16:52;30.20;52.80
22966;DHT22;11649;48.090;9.754;2022-07-24T13:19:20;30.40;51.90
22966;DHT22;11649;48.090;9.754;2022-07-24T13:21:48;30.90;50.10
22966;DHT22;11649;48.090;9.754;2022-07-24T13:24:16;31.70;50.20
22966;DHT22;11649;48.090;9.754;2022-07-24T13:26:44;31.60;51.80
22966;DHT22;11649;48.090;9.754;2022-07-24T13:29:11;31.70;50.50
22966;DHT22;11649;48.090;9.754;2022-07-24T13:31:39;32.30;47.90
22966;DHT22;11649;48.090;9.754;2022-07-24T13:34:07;32.00;45.00
22966;DHT22;11649;48.090;9.754;2022-07-24T13:36:43;31.70;47.40
22966;DHT22;11649;48.090;9.754;2022-07-24T13:39:24;32.00;47.60
22966;DHT22;11649;48.090;9.754;2022-07-24T13:41:54;31.90;48.30
22966;DHT22;11649;48.090;9.754;2022-07-24T13:44:22;32.10;47.40
22966;DHT22;11649;48.090;9.754;2022-07-24T13:46:48;32.70;46.60
22966;DHT22;11649;48.090;9.754;2022-07-24T13:49:16;33.00;44.30
22966;DHT22;11649;48.090;9.754;2022-07-24T13:51:44;33.00;45.30
22966;DHT22;11649;48.090;9.754;2022-07-24T13:54:10;33.40;46.40
22966;DHT22;11649;48.090;9.754;2022-07-24T13:56:38;33.60;44.30
22966;DHT22;11649;48.090;9.754;2022-07-24T13:59:05;34.30;44.70
22966;DHT22;11649;48.090;9.754;2022-07-24T14:01:33;34.20;43.70
22966;DHT22;11649;48.090;9.754;2022-07-24T14:04:02;35.20;42.80
22966;DHT22;11649;48.090;9.754;2022-07-24T14:06:51;35.40;38.50
22966;DHT22;11649;48.090;9.754;2022-07-24T14:09:18;35.60;40.10
22966;DHT22;11649;48.090;9.754;2022-07-24T14:11:45;36.00;37.70
22966;DHT22;11649;48.090;9.754;2022-07-24T14:14:13;36.60;34.60
22966;DHT22;11649;48.090;9.754;2022-07-24T14:16:40;37.50;31.60
22966;DHT22;11649;48.090;9.754;2022-07-24T14:19:07;38.00;32.40
22966;DHT22;11649;48.090;9.754;2022-07-24T14:21:33;38.30;32.40
22966;DHT22;11649;48.090;9.754;2022-07-24T14:24:01;37.70;33.50
22966;DHT22;11649;48.090;9.754;2022-07-24T14:26:28;37.80;35.90
22966;DHT22;11649;48.090;9.754;2022-07-24T14:28:55;38.10;35.20
22966;DHT22;11649;48.090;9.754;2022-07-24T14:31:22;37.80;33.90
22966;DHT22;11649;48.090;9.754;2022-07-24T14:33:49;38.10;33.10
22966;DHT22;11649;48.090;9.754;2022-07-24T14:36:15;38.60;32.50
22966;DHT22;11649;48.090;9.754;2022-07-24T14:38:42;39.00;32.70
22966;DHT22;11649;48.090;9.754;2022-07-24T14:41:09;39.30;31.70
22966;DHT22;11649;48.090;9.754;2022-07-24T14:43:36;39.90;30.50
22966;DHT22;11649;48.090;9.754;2022-07-24T14:46:03;40.10;28.50
22966;DHT22;11649;48.090;9.754;2022-07-24T14:48:30;40.30;28.50
22966;DHT22;11649;48.090;9.754;2022-07-24T14:50:57;40.20;29.60
22966;DHT22;11649;48.090;9.754;2022-07-24T14:53:24;40.10;29.00
22966;DHT22;11649;48.090;9.754;2022-07-24T14:55:50;40.60;31.10
22966;DHT22;11649;48.090;9.754;2022-07-24T14:58:17;40.40;28.20
22966;DHT22;11649;48.090;9.754;2022-07-24T15:00:44;40.80;29.70
22966;DHT22;11649;48.090;9.754;2022-07-24T15:03:12;40.40;27.00
22966;DHT22;11649;48.090;9.754;2022-07-24T15:05:39;40.30;27.30
22966;DHT22;11649;48.090;9.754;2022-07-24T15:08:06;39.20;29.20
22966;DHT22;11649;48.090;9.754;2022-07-24T15:10:33;39.30;31.60
22966;DHT22;11649;48.090;9.754;2022-07-24T15:13:00;39.90;29.60
22966;DHT22;11649;48.090;9.754;2022-07-24T15:15:28;40.80;28.40
22966;DHT22;11649;48.090;9.754;2022-07-24T15:17:57;40.90;28.90
22966;DHT22;11649;48.090;9.754;2022-07-24T15:20:24;40.00;29.70
22966;DHT22;11649;48.090;9.754;2022-07-24T15:22:50;40.00;27.50
22966;DHT22;11649;48.090;9.754;2022-07-24T15:25:17;40.20;26.70
22966;DHT22;11649;48.090;9.754;2022-07-24T15:27:44;39.90;27.40
22966;DHT22;11649;48.090;9.754;2022-07-24T15:30:16;39.90;27.80
22966;DHT22;11649;48.090;9.754;2022-07-24T15:32:43;40.10;29.30
22966;DHT22;11649;48.090;9.754;2022-07-24T15:35:11;40.20;27.20
22966;DHT22;11649;48.090;9.754;2022-07-24T15:37:37;39.80;26.60
22966;DHT22;11649;48.090;9.754;2022-07-24T15:40:05;39.10;29.00
22966;DHT22;11649;48.090;9.754;2022-07-24T15:42:32;38.60;28.40
22966;DHT22;11649;48.090;9.754;2022-07-24T15:44:58;38.40;29.40
22966;DHT22;11649;48.090;9.754;2022-07-24T15:47:25;38.20;29.50
22966;DHT22;11649;48.090;9.754;2022-07-24T15:49:52;37.90;29.30
22966;DHT22;11649;48.090;9.754;2022-07-24T15:52:19;37.40;30.30
22966;DHT22;11649;48.090;9.754;2022-07-24T15:54:46;36.90;31.20
22966;DHT22;11649;48.090;9.754;2022-07-24T15:57:12;36.60;30.70
22966;DHT22;11649;48.090;9.754;2022-07-24T15:59:40;36.00;31.10
22966;DHT22;11649;48.090;9.754;2022-07-24T16:02:07;35.40;32.40
22966;DHT22;11649;48.090;9.754;2022-07-24T16:04:34;34.60;33.80
22966;DHT22;11649;48.090;9.754;2022-07-24T16:07:00;33.80;37.00
22966;DHT22;11649;48.090;9.754;2022-07-24T16:09:28;33.80;37.90